sensor_id;sensor_type;location;lat;lon;timestamp;P1;durP1;ratioP1;P2;durP2;ratioP2
76023;SDS011;64719;52.124;6.226;2023-04-21T00:01:18;38.97;;;17.23;;
76023;SDS011;64719;52.124;6.226;2023-04-21T00:03:45;34.30;;;17.88;;
76023;SDS011;64719;52.124;6.226;2023-04-21T00:06:11;37.90;;;17.10;;
76023;SDS011;64719;52.124;6.226;2023-04-21T00:08:38;35.97;;;16.45;;
76023;SDS011;64719;52.124;6.226;2023-04-21T00:11:06;44.38;;;18.23;;
76023;SDS011;64719;52.124;6.226;2023-04-21T00:13:33;37.00;;;16.88;;
76023;SDS011;64719;52.124;6.226;2023-04-21T00:16:00;43.22;;;17.92;;
76023;SDS011;64719;52.124;6.226;2023-04-21T00:18:27;40.45;;;18.00;;
76023;SDS011;64719;52.124;6.226;2023-04-21T00:20:53;40.03;;;16.73;;
76023;SDS011;64719;52.124;6.226;2023-04-21T00:23:20;38.58;;;17.42;;
76023;SDS011;64719;52.124;6.226;2023-04-21T00:25:46;44.55;;;19.38;;
76023;SDS011;64719;52.124;6.226;2023-04-21T00:28:14;49.30;;;20.10;;
76023;SDS011;64719;52.124;6.226;2023-04-21T00:30:41;46.03;;;18.65;;
76023;SDS011;64719;52.124;6.226;2023-04-21T00:33:07;43.28;;;19.02;;
76023;SDS011;64719;52.124;6.226;2023-04-21T00:35:34;49.17;;;19.83;;
76023;SDS011;64719;52.124;6.226;2023-04-21T00:38:01;44.70;;;19.45;;
76023;SDS011;64719;52.124;6.226;2023-04-21T00:40:27;43.58;;;19.38;;
76023;SDS011;64719;52.124;6.226;2023-04-21T00:42:54;47.65;;;20.60;;
76023;SDS011;64719;52.124;6.226;2023-04-21T00:45:21;44.53;;;19.35;;
76023;SDS011;64719;52.124;6.226;2023-04-21T00:47:48;46.40;;;19.30;;
76023;SDS011;64719;52.124;6.226;2023-04-21T00:50:14;48.38;;;20.48;;
76023;SDS011;64719;52.124;6.226;2023-04-21T00:52:41;47.75;;;19.60;;
76023;SDS011;64719;52.124;6.226;2023-04-21T00:55:11;46.28;;;19.77;;
76023;SDS011;64719;52.124;6.226;2023-04-21T00:57:38;50.13;;;19.88;;
76023;SDS011;64719;52.124;6.226;2023-04-21T01:00:05;47.85;;;21.50;;
76023;SDS011;64719;52.124;6.226;2023-04-21T01:02:36;49.72;;;21.20;;
76023;SDS011;64719;52.124;6.226;2023-04-21T01:05:04;49.03;;;21.15;;
76023;SDS011;64719;52.124;6.226;2023-04-21T01:07:33;46.00;;;21.10;;
76023;SDS011;64719;52.124;6.226;2023-04-21T01:09:59;48.00;;;20.33;;
76023;SDS011;64719;52.124;6.226;2023-04-21T01:12:26;49.53;;;20.92;;
76023;SDS011;64719;52.124;6.226;2023-04-21T01:14:52;50.40;;;19.63;;
76023;SDS011;64719;52.124;6.226;2023-04-21T01:17:19;49.45;;;21.42;;
76023;SDS011;64719;52.124;6.226;2023-04-21T01:19:48;44.50;;;20.00;;
76023;SDS011;64719;52.124;6.226;2023-04-21T01:22:18;47.20;;;20.42;;
76023;SDS011;64719;52.124;6.226;2023-04-21T01:24:45;45.83;;;19.55;;
76023;SDS011;64719;52.124;6.226;2023-04-21T01:27:14;51.33;;;22.08;;
76023;SDS011;64719;52.124;6.226;2023-04-21T01:29:42;45.95;;;20.45;;
76023;SDS011;64719;52.124;6.226;2023-04-21T01:32:11;47.78;;;20.40;;
76023;SDS011;64719;52.124;6.226;2023-04-21T01:34:40;52.15;;;21.38;;
76023;SDS011;64719;52.124;6.226;2023-04-21T01:37:06;42.72;;;19.40;;
76023;SDS011;64719;52.124;6.226;2023-04-21T01:39:37;48.72;;;20.83;;
76023;SDS011;64719;52.124;6.226;2023-04-21T01:42:04;42.83;;;19.95;;
76023;SDS011;64719;52.124;6.226;2023-04-21T01:44:30;44.42;;;20.73;;
76023;SDS011;64719;52.124;6.226;2023-04-21T01:46:57;41.15;;;19.40;;
76023;SDS011;64719;52.124;6.226;2023-04-21T01:49:23;49.22;;;21.17;;
76023;SDS011;64719;52.124;6.226;2023-04-21T01:51:50;49.80;;;20.40;;
76023;SDS011;64719;52.124;6.226;2023-04-21T01:54:16;47.65;;;20.33;;
76023;SDS011;64719;52.124;6.226;2023-04-21T01:56:44;49.17;;;21.45;;
76023;SDS011;64719;52.124;6.226;2023-04-21T01:59:11;49.70;;;21.50;;
76023;SDS011;64719;52.124;6.226;2023-04-21T02:01:37;46.15;;;21.20;;
76023;SDS011;64719;52.124;6.226;2023-04-21T02:04:04;45.85;;;21.23;;
76023;SDS011;64719;52.124;6.226;2023-04-21T02:06:30;47.90;;;20.48;;
76023;SDS011;64719;52.124;6.226;2023-04-21T02:08:57;44.58;;;20.52;;
76023;SDS011;64719;52.124;6.226;2023-04-21T02:11:23;54.10;;;21.60;;
76023;SDS011;64719;52.124;6.226;2023-04-21T02:13:52;44.65;;;20.30;;
76023;SDS011;64719;52.124;6.226;2023-04-21T02:18:45;42.53;;;19.25;;
76023;SDS011;64719;52.124;6.226;2023-04-21T02:21:12;42.95;;;19.65;;
76023;SDS011;64719;52.124;6.226;2023-04-21T02:23:39;50.78;;;21.40;;
76023;SDS011;64719;52.124;6.226;2023-04-21T02:26:05;53.15;;;22.50;;
76023;SDS011;64719;52.124;6.226;2023-04-21T02:28:32;50.20;;;21.70;;
76023;SDS011;64719;52.124;6.226;2023-04-21T02:31:00;49.20;;;22.55;;
76023;SDS011;64719;52.124;6.226;2023-04-21T02:33:26;45.45;;;20.92;;
76023;SDS011;64719;52.124;6.226;2023-04-21T02:35:53;51.70;;;21.20;;
76023;SDS011;64719;52.124;6.226;2023-04-21T02:38:19;51.83;;;20.70;;
76023;SDS011;64719;52.124;6.226;2023-04-21T02:40:46;54.40;;;23.33;;
76023;SDS011;64719;52.124;6.226;2023-04-21T02:43:14;49.95;;;21.45;;
76023;SDS011;64719;52.124;6.226;2023-04-21T02:45:41;54.60;;;23.13;;
76023;SDS011;64719;52.124;6.226;2023-04-21T02:48:09;55.80;;;23.48;;
76023;SDS011;64719;52.124;6.226;2023-04-21T02:50:35;55.92;;;23.00;;
76023;SDS011;64719;52.124;6.226;2023-04-21T02:53:02;55.28;;;23.55;;
76023;SDS011;64719;52.124;6.226;2023-04-21T02:55:28;60.17;;;23.77;;
76023;SDS011;64719;52.124;6.226;2023-04-21T02:57:55;54.90;;;22.80;;
76023;SDS011;64719;52.124;6.226;2023-04-21T03:00:22;57.53;;;23.15;;
76023;SDS011;64719;52.124;6.226;2023-04-21T03:02:48;58.17;;;23.65;;
76023;SDS011;64719;52.124;6.226;2023-04-21T03:05:17;61.38;;;23.38;;
76023;SDS011;64719;52.124;6.226;2023-04-21T03:07:44;60.13;;;23.77;;
76023;SDS011;64719;52.124;6.226;2023-04-21T03:10:10;65.53;;;24.55;;
76023;SDS011;64719;52.124;6.226;2023-04-21T03:12:37;65.55;;;25.45;;
76023;SDS011;64719;52.124;6.226;2023-04-21T03:15:04;71.28;;;25.50;;
76023;SDS011;64719;52.124;6.226;2023-04-21T03:17:31;61.92;;;25.67;;
76023;SDS011;64719;52.124;6.226;2023-04-21T03:19:57;62.65;;;24.67;;
76023;SDS011;64719;52.124;6.226;2023-04-21T03:22:25;70.22;;;25.98;;
76023;SDS011;64719;52.124;6.226;2023-04-21T03:24:53;62.13;;;23.48;;
76023;SDS011;64719;52.124;6.226;2023-04-21T03:27:19;68.00;;;26.17;;
76023;SDS011;64719;52.124;6.226;2023-04-21T03:29:46;62.22;;;24.15;;
76023;SDS011;64719;52.124;6.226;2023-04-21T03:32:12;67.28;;;25.13;;
76023;SDS011;64719;52.124;6.226;2023-04-21T03:34:40;66.35;;;24.63;;
76023;SDS011;64719;52.124;6.226;2023-04-21T03:37:06;64.70;;;23.63;;
76023;SDS011;64719;52.124;6.226;2023-04-21T03:39:34;64.95;;;25.77;;
76023;SDS011;64719;52.124;6.226;2023-04-21T03:42:01;63.38;;;24.60;;
76023;SDS011;64719;52.124;6.226;2023-04-21T03:44:28;66.78;;;24.63;;
76023;SDS011;64719;52.124;6.226;2023-04-21T03:46:55;63.22;;;24.17;;
76023;SDS011;64719;52.124;6.226;2023-04-21T03:49:22;65.13;;;25.05;;
76023;SDS011;64719;52.124;6.226;2023-04-21T03:51:48;68.80;;;24.67;;
76023;SDS011;64719;52.124;6.226;2023-04-21T03:54:15;64.10;;;24.00;;
76023;SDS011;64719;52.124;6.226;2023-04-21T03:56:43;65.05;;;24.75;;
76023;SDS011;64719;52.124;6.226;2023-04-21T03:59:09;66.78;;;24.33;;
76023;SDS011;64719;52.124;6.226;2023-04-21T04:01:35;67.55;;;25.33;;
76023;SDS011;64719;52.124;6.226;2023-04-21T04:04:02;62.65;;;24.20;;
76023;SDS011;64719;52.124;6.226;2023-04-21T04:06:29;67.65;;;23.45;;
76023;SDS011;64719;52.124;6.226;2023-04-21T04:08:56;63.38;;;25.10;;
76023;SDS011;64719;52.124;6.226;2023-04-21T04:11:23;71.10;;;25.80;;
76023;SDS011;64719;52.124;6.226;2023-04-21T04:13:51;66.85;;;24.48;;
76023;SDS011;64719;52.124;6.226;2023-04-21T04:16:17;68.97;;;26.42;;
76023;SDS011;64719;52.124;6.226;2023-04-21T04:18:44;67.03;;;25.25;;
76023;SDS011;64719;52.124;6.226;2023-04-21T04:21:10;72.18;;;24.67;;
76023;SDS011;64719;52.124;6.226;2023-04-21T04:23:37;72.15;;;26.45;;
76023;SDS011;64719;52.124;6.226;2023-04-21T04:26:03;63.58;;;24.35;;
76023;SDS011;64719;52.124;6.226;2023-04-21T04:28:30;65.80;;;25.45;;
76023;SDS011;64719;52.124;6.226;2023-04-21T04:30:58;77.35;;;26.58;;
76023;SDS011;64719;52.124;6.226;2023-04-21T04:33:27;75.57;;;25.88;;
76023;SDS011;64719;52.124;6.226;2023-04-21T04:35:53;65.95;;;25.63;;
76023;SDS011;64719;52.124;6.226;2023-04-21T04:38:20;63.03;;;24.25;;
76023;SDS011;64719;52.124;6.226;2023-04-21T04:40:51;66.03;;;25.42;;
76023;SDS011;64719;52.124;6.226;2023-04-21T04:43:18;66.63;;;26.67;;
76023;SDS011;64719;52.124;6.226;2023-04-21T04:45:45;65.50;;;25.35;;
76023;SDS011;64719;52.124;6.226;2023-04-21T04:48:13;64.85;;;24.30;;
76023;SDS011;64719;52.124;6.226;2023-04-21T04:50:40;65.10;;;25.10;;
76023;SDS011;64719;52.124;6.226;2023-04-21T04:53:06;68.78;;;24.58;;
76023;SDS011;64719;52.124;6.226;2023-04-21T04:55:33;68.03;;;25.25;;
76023;SDS011;64719;52.124;6.226;2023-04-21T04:57:59;72.63;;;26.65;;
76023;SDS011;64719;52.124;6.226;2023-04-21T05:00:26;62.22;;;23.80;;
76023;SDS011;64719;52.124;6.226;2023-04-21T05:02:53;63.60;;;24.58;;
76023;SDS011;64719;52.124;6.226;2023-04-21T05:05:22;66.88;;;25.13;;
76023;SDS011;64719;52.124;6.226;2023-04-21T05:10:15;59.03;;;23.30;;
76023;SDS011;64719;52.124;6.226;2023-04-21T05:12:42;72.03;;;26.95;;
76023;SDS011;64719;52.124;6.226;2023-04-21T05:15:09;65.47;;;24.30;;
76023;SDS011;64719;52.124;6.226;2023-04-21T05:17:35;63.88;;;25.30;;
76023;SDS011;64719;52.124;6.226;2023-04-21T05:20:02;65.32;;;24.52;;
76023;SDS011;64719;52.124;6.226;2023-04-21T05:22:31;67.93;;;25.80;;
76023;SDS011;64719;52.124;6.226;2023-04-21T05:24:57;64.47;;;25.60;;
76023;SDS011;64719;52.124;6.226;2023-04-21T05:27:24;61.25;;;25.50;;
76023;SDS011;64719;52.124;6.226;2023-04-21T05:29:50;59.67;;;24.45;;
76023;SDS011;64719;52.124;6.226;2023-04-21T05:32:18;57.25;;;24.67;;
76023;SDS011;64719;52.124;6.226;2023-04-21T05:34:45;56.28;;;24.27;;
76023;SDS011;64719;52.124;6.226;2023-04-21T05:37:11;56.00;;;23.75;;
76023;SDS011;64719;52.124;6.226;2023-04-21T05:39:39;56.70;;;25.25;;
76023;SDS011;64719;52.124;6.226;2023-04-21T05:42:08;55.13;;;23.40;;
76023;SDS011;64719;52.124;6.226;2023-04-21T05:44:34;54.95;;;24.60;;
76023;SDS011;64719;52.124;6.226;2023-04-21T05:47:02;51.55;;;24.02;;
76023;SDS011;64719;52.124;6.226;2023-04-21T05:49:29;52.25;;;25.00;;
76023;SDS011;64719;52.124;6.226;2023-04-21T05:51:55;51.83;;;24.38;;
76023;SDS011;64719;52.124;6.226;2023-04-21T05:54:22;55.78;;;24.92;;
76023;SDS011;64719;52.124;6.226;2023-04-21T05:56:50;55.88;;;24.95;;
76023;SDS011;64719;52.124;6.226;2023-04-21T05:59:16;51.50;;;23.60;;
76023;SDS011;64719;52.124;6.226;2023-04-21T06:01:43;55.70;;;25.80;;
76023;SDS011;64719;52.124;6.226;2023-04-21T06:04:09;48.08;;;23.50;;
76023;SDS011;64719;52.124;6.226;2023-04-21T06:06:36;54.22;;;24.90;;
76023;SDS011;64719;52.124;6.226;2023-04-21T06:09:02;51.38;;;24.95;;
76023;SDS011;64719;52.124;6.226;2023-04-21T06:11:29;52.72;;;24.75;;
76023;SDS011;64719;52.124;6.226;2023-04-21T06:13:57;55.20;;;24.52;;
76023;SDS011;64719;52.124;6.226;2023-04-21T06:16:25;47.25;;;23.90;;
76023;SDS011;64719;52.124;6.226;2023-04-21T06:18:51;48.63;;;25.17;;
76023;SDS011;64719;52.124;6.226;2023-04-21T06:21:18;48.85;;;24.35;;
76023;SDS011;64719;52.124;6.226;2023-04-21T06:23:44;54.05;;;25.17;;
76023;SDS011;64719;52.124;6.226;2023-04-21T06:26:11;48.88;;;25.52;;
76023;SDS011;64719;52.124;6.226;2023-04-21T06:28:37;52.03;;;24.27;;
76023;SDS011;64719;52.124;6.226;2023-04-21T06:31:05;51.65;;;24.98;;
76023;SDS011;64719;52.124;6.226;2023-04-21T06:33:33;50.45;;;24.25;;
76023;SDS011;64719;52.124;6.226;2023-04-21T06:36:00;47.83;;;23.45;;
76023;SDS011;64719;52.124;6.226;2023-04-21T06:38:27;48.42;;;23.05;;
76023;SDS011;64719;52.124;6.226;2023-04-21T06:40:53;48.70;;;24.77;;
76023;SDS011;64719;52.124;6.226;2023-04-21T06:43:20;51.28;;;25.45;;
76023;SDS011;64719;52.124;6.226;2023-04-21T06:45:46;47.33;;;24.73;;
76023;SDS011;64719;52.124;6.226;2023-04-21T06:48:14;51.47;;;25.08;;
76023;SDS011;64719;52.124;6.226;2023-04-21T06:50:40;48.13;;;25.05;;
76023;SDS011;64719;52.124;6.226;2023-04-21T06:53:08;47.22;;;24.60;;
76023;SDS011;64719;52.124;6.226;2023-04-21T06:55:35;48.15;;;23.30;;
76023;SDS011;64719;52.124;6.226;2023-04-21T06:58:01;50.20;;;24.17;;
76023;SDS011;64719;52.124;6.226;2023-04-21T07:00:28;48.15;;;24.27;;
76023;SDS011;64719;52.124;6.226;2023-04-21T07:02:54;45.33;;;24.33;;
76023;SDS011;64719;52.124;6.226;2023-04-21T07:05:22;44.60;;;23.95;;
76023;SDS011;64719;52.124;6.226;2023-04-21T07:07:49;47.90;;;23.75;;
76023;SDS011;64719;52.124;6.226;2023-04-21T07:10:15;47.30;;;23.85;;
76023;SDS011;64719;52.124;6.226;2023-04-21T07:12:43;42.90;;;24.00;;
76023;SDS011;64719;52.124;6.226;2023-04-21T07:15:10;39.03;;;21.75;;
76023;SDS011;64719;52.124;6.226;2023-04-21T07:17:37;44.50;;;24.67;;
76023;SDS011;64719;52.124;6.226;2023-04-21T07:20:04;45.60;;;23.95;;
76023;SDS011;64719;52.124;6.226;2023-04-21T07:22:33;43.80;;;23.25;;
76023;SDS011;64719;52.124;6.226;2023-04-21T07:25:00;45.95;;;25.05;;
76023;SDS011;64719;52.124;6.226;2023-04-21T07:27:30;46.67;;;24.27;;
76023;SDS011;64719;52.124;6.226;2023-04-21T07:29:57;46.30;;;24.20;;
76023;SDS011;64719;52.124;6.226;2023-04-21T07:32:24;48.15;;;25.25;;
76023;SDS011;64719;52.124;6.226;2023-04-21T07:34:51;48.30;;;24.50;;
76023;SDS011;64719;52.124;6.226;2023-04-21T07:37:18;49.72;;;25.17;;
76023;SDS011;64719;52.124;6.226;2023-04-21T07:39:46;48.13;;;25.23;;
76023;SDS011;64719;52.124;6.226;2023-04-21T07:42:12;44.88;;;24.70;;
76023;SDS011;64719;52.124;6.226;2023-04-21T07:44:39;50.00;;;24.88;;
76023;SDS011;64719;52.124;6.226;2023-04-21T07:47:05;44.78;;;22.90;;
76023;SDS011;64719;52.124;6.226;2023-04-21T07:49:32;42.92;;;24.17;;
76023;SDS011;64719;52.124;6.226;2023-04-21T07:51:58;49.67;;;23.90;;
76023;SDS011;64719;52.124;6.226;2023-04-21T07:54:25;44.92;;;25.15;;
76023;SDS011;64719;52.124;6.226;2023-04-21T07:56:53;46.60;;;24.42;;
76023;SDS011;64719;52.124;6.226;2023-04-21T07:59:20;50.10;;;24.42;;
76023;SDS011;64719;52.124;6.226;2023-04-21T08:01:46;43.70;;;24.38;;
76023;SDS011;64719;52.124;6.226;2023-04-21T08:04:15;43.22;;;23.98;;
76023;SDS011;64719;52.124;6.226;2023-04-21T08:06:42;44.70;;;24.63;;
76023;SDS011;64719;52.124;6.226;2023-04-21T08:09:09;47.50;;;25.13;;
76023;SDS011;64719;52.124;6.226;2023-04-21T08:11:35;46.38;;;24.42;;
76023;SDS011;64719;52.124;6.226;2023-04-21T08:14:03;44.67;;;22.50;;
76023;SDS011;64719;52.124;6.226;2023-04-21T08:16:30;39.33;;;21.95;;
76023;SDS011;64719;52.124;6.226;2023-04-21T08:18:56;42.72;;;23.95;;
76023;SDS011;64719;52.124;6.226;2023-04-21T08:21:23;45.80;;;24.20;;
76023;SDS011;64719;52.124;6.226;2023-04-21T08:23:49;39.65;;;22.73;;
76023;SDS011;64719;52.124;6.226;2023-04-21T08:26:16;40.95;;;24.13;;
76023;SDS011;64719;52.124;6.226;2023-04-21T08:28:42;42.22;;;23.13;;
76023;SDS011;64719;52.124;6.226;2023-04-21T08:31:11;42.05;;;22.95;;
76023;SDS011;64719;52.124;6.226;2023-04-21T08:33:37;43.83;;;23.40;;
76023;SDS011;64719;52.124;6.226;2023-04-21T08:36:04;35.83;;;20.65;;
76023;SDS011;64719;52.124;6.226;2023-04-21T08:38:31;35.80;;;21.65;;
76023;SDS011;64719;52.124;6.226;2023-04-21T08:40:58;37.47;;;22.40;;
76023;SDS011;64719;52.124;6.226;2023-04-21T08:43:25;35.17;;;21.00;;
76023;SDS011;64719;52.124;6.226;2023-04-21T08:45:52;38.28;;;22.83;;
76023;SDS011;64719;52.124;6.226;2023-04-21T08:48:20;34.70;;;21.42;;
76023;SDS011;64719;52.124;6.226;2023-04-21T08:50:48;37.85;;;21.05;;
76023;SDS011;64719;52.124;6.226;2023-04-21T09:00:37;32.25;;;19.25;;
76023;SDS011;64719;52.124;6.226;2023-04-21T09:03:05;37.22;;;20.42;;
76023;SDS011;64719;52.124;6.226;2023-04-21T09:05:33;34.95;;;19.95;;
76023;SDS011;64719;52.124;6.226;2023-04-21T09:08:08;33.22;;;20.25;;
76023;SDS011;64719;52.124;6.226;2023-04-21T09:10:42;32.83;;;20.60;;
76023;SDS011;64719;52.124;6.226;2023-04-21T09:13:09;33.40;;;20.25;;
76023;SDS011;64719;52.124;6.226;2023-04-21T09:15:38;37.35;;;20.55;;
76023;SDS011;64719;52.124;6.226;2023-04-21T09:18:09;33.05;;;21.13;;
76023;SDS011;64719;52.124;6.226;2023-04-21T09:20:39;33.70;;;20.95;;
76023;SDS011;64719;52.124;6.226;2023-04-21T09:23:05;30.63;;;18.63;;
76023;SDS011;64719;52.124;6.226;2023-04-21T09:25:32;31.52;;;18.67;;
76023;SDS011;64719;52.124;6.226;2023-04-21T09:27:59;29.42;;;19.05;;
76023;SDS011;64719;52.124;6.226;2023-04-21T09:30:26;28.52;;;18.55;;
76023;SDS011;64719;52.124;6.226;2023-04-21T09:32:54;30.08;;;18.52;;
76023;SDS011;64719;52.124;6.226;2023-04-21T09:35:22;31.25;;;18.48;;
76023;SDS011;64719;52.124;6.226;2023-04-21T09:37:54;28.38;;;17.52;;
76023;SDS011;64719;52.124;6.226;2023-04-21T09:40:21;26.40;;;18.90;;
76023;SDS011;64719;52.124;6.226;2023-04-21T09:42:48;28.33;;;18.15;;
76023;SDS011;64719;52.124;6.226;2023-04-21T09:45:14;29.52;;;18.42;;
76023;SDS011;64719;52.124;6.226;2023-04-21T09:47:41;28.35;;;17.63;;
76023;SDS011;64719;52.124;6.226;2023-04-21T09:50:09;31.48;;;18.83;;
76023;SDS011;64719;52.124;6.226;2023-04-21T09:52:37;31.05;;;19.13;;
76023;SDS011;64719;52.124;6.226;2023-04-21T09:55:08;26.58;;;18.45;;
76023;SDS011;64719;52.124;6.226;2023-04-21T09:57:37;31.17;;;19.17;;
76023;SDS011;64719;52.124;6.226;2023-04-21T10:00:04;31.00;;;18.92;;
76023;SDS011;64719;52.124;6.226;2023-04-21T10:02:33;29.73;;;17.83;;
76023;SDS011;64719;52.124;6.226;2023-04-21T10:05:00;31.98;;;19.23;;
76023;SDS011;64719;52.124;6.226;2023-04-21T10:07:30;30.17;;;19.45;;
76023;SDS011;64719;52.124;6.226;2023-04-21T10:09:57;31.20;;;19.02;;
76023;SDS011;64719;52.124;6.226;2023-04-21T10:12:26;29.45;;;18.33;;
76023;SDS011;64719;52.124;6.226;2023-04-21T10:14:54;27.88;;;18.40;;
76023;SDS011;64719;52.124;6.226;2023-04-21T10:17:21;31.67;;;18.80;;
76023;SDS011;64719;52.124;6.226;2023-04-21T10:19:50;28.88;;;18.48;;
76023;SDS011;64719;52.124;6.226;2023-04-21T10:24:54;25.30;;;17.38;;
76023;SDS011;64719;52.124;6.226;2023-04-21T10:27:32;33.08;;;19.30;;
76023;SDS011;64719;52.124;6.226;2023-04-21T10:30:00;31.42;;;18.30;;
76023;SDS011;64719;52.124;6.226;2023-04-21T10:32:42;27.20;;;18.75;;
76023;SDS011;64719;52.124;6.226;2023-04-21T10:35:09;28.27;;;18.27;;
76023;SDS011;64719;52.124;6.226;2023-04-21T10:37:36;27.92;;;18.15;;
76023;SDS011;64719;52.124;6.226;2023-04-21T10:40:03;27.38;;;18.38;;
76023;SDS011;64719;52.124;6.226;2023-04-21T10:42:35;28.17;;;17.88;;
76023;SDS011;64719;52.124;6.226;2023-04-21T10:47:36;26.10;;;16.75;;
76023;SDS011;64719;52.124;6.226;2023-04-21T10:50:13;26.85;;;17.00;;
76023;SDS011;64719;52.124;6.226;2023-04-21T10:52:45;26.75;;;18.17;;
76023;SDS011;64719;52.124;6.226;2023-04-21T10:55:16;25.73;;;18.48;;
76023;SDS011;64719;52.124;6.226;2023-04-21T10:57:46;27.73;;;17.73;;
76023;SDS011;64719;52.124;6.226;2023-04-21T11:00:14;26.63;;;17.48;;
76023;SDS011;64719;52.124;6.226;2023-04-21T11:02:42;29.85;;;17.67;;
76023;SDS011;64719;52.124;6.226;2023-04-21T11:05:09;27.08;;;18.05;;
76023;SDS011;64719;52.124;6.226;2023-04-21T11:07:36;29.27;;;19.83;;
76023;SDS011;64719;52.124;6.226;2023-04-21T11:10:03;27.02;;;17.98;;
76023;SDS011;64719;52.124;6.226;2023-04-21T11:12:32;28.95;;;18.58;;
76023;SDS011;64719;52.124;6.226;2023-04-21T11:15:03;27.85;;;18.75;;
76023;SDS011;64719;52.124;6.226;2023-04-21T11:17:32;29.63;;;18.05;;
76023;SDS011;64719;52.124;6.226;2023-04-21T11:19:59;27.65;;;18.98;;
76023;SDS011;64719;52.124;6.226;2023-04-21T11:22:28;27.90;;;18.45;;
76023;SDS011;64719;52.124;6.226;2023-04-21T11:24:55;30.95;;;18.65;;
76023;SDS011;64719;52.124;6.226;2023-04-21T11:27:22;27.88;;;18.33;;
76023;SDS011;64719;52.124;6.226;2023-04-21T11:29:51;31.70;;;18.77;;
76023;SDS011;64719;52.124;6.226;2023-04-21T11:32:20;30.77;;;19.50;;
76023;SDS011;64719;52.124;6.226;2023-04-21T11:34:46;26.80;;;18.92;;
76023;SDS011;64719;52.124;6.226;2023-04-21T11:37:13;30.58;;;18.70;;
76023;SDS011;64719;52.124;6.226;2023-04-21T11:39:41;28.27;;;18.88;;
76023;SDS011;64719;52.124;6.226;2023-04-21T11:42:08;30.50;;;19.80;;
76023;SDS011;64719;52.124;6.226;2023-04-21T11:44:36;33.20;;;19.25;;
76023;SDS011;64719;52.124;6.226;2023-04-21T11:49:43;27.95;;;17.40;;
76023;SDS011;64719;52.124;6.226;2023-04-21T11:52:11;31.90;;;19.45;;
76023;SDS011;64719;52.124;6.226;2023-04-21T11:54:45;31.85;;;19.23;;
76023;SDS011;64719;52.124;6.226;2023-04-21T11:57:11;29.02;;;18.55;;
76023;SDS011;64719;52.124;6.226;2023-04-21T11:59:38;31.38;;;20.27;;
76023;SDS011;64719;52.124;6.226;2023-04-21T12:02:04;28.95;;;19.52;;
76023;SDS011;64719;52.124;6.226;2023-04-21T12:04:37;29.40;;;19.15;;
76023;SDS011;64719;52.124;6.226;2023-04-21T12:07:05;32.67;;;19.52;;
76023;SDS011;64719;52.124;6.226;2023-04-21T12:09:34;28.05;;;19.55;;
76023;SDS011;64719;52.124;6.226;2023-04-21T12:12:02;29.08;;;18.00;;
76023;SDS011;64719;52.124;6.226;2023-04-21T12:14:31;30.58;;;18.98;;
76023;SDS011;64719;52.124;6.226;2023-04-21T12:16:58;28.67;;;18.25;;
76023;SDS011;64719;52.124;6.226;2023-04-21T12:19:33;24.60;;;17.40;;
76023;SDS011;64719;52.124;6.226;2023-04-21T12:22:06;23.38;;;15.77;;
76023;SDS011;64719;52.124;6.226;2023-04-21T12:24:34;23.00;;;15.77;;
76023;SDS011;64719;52.124;6.226;2023-04-21T12:27:01;25.38;;;17.02;;
76023;SDS011;64719;52.124;6.226;2023-04-21T12:29:27;24.13;;;16.35;;
76023;SDS011;64719;52.124;6.226;2023-04-21T12:31:54;23.17;;;16.15;;
76023;SDS011;64719;52.124;6.226;2023-04-21T12:34:20;23.98;;;16.00;;
76023;SDS011;64719;52.124;6.226;2023-04-21T12:36:47;24.77;;;16.73;;
76023;SDS011;64719;52.124;6.226;2023-04-21T12:39:15;26.98;;;16.40;;
76023;SDS011;64719;52.124;6.226;2023-04-21T12:41:42;26.48;;;16.35;;
76023;SDS011;64719;52.124;6.226;2023-04-21T12:44:09;24.75;;;16.40;;
76023;SDS011;64719;52.124;6.226;2023-04-21T12:46:36;24.60;;;16.67;;
76023;SDS011;64719;52.124;6.226;2023-04-21T12:49:02;24.63;;;17.17;;
76023;SDS011;64719;52.124;6.226;2023-04-21T12:51:31;26.00;;;17.55;;
76023;SDS011;64719;52.124;6.226;2023-04-21T12:53:58;25.67;;;16.67;;
76023;SDS011;64719;52.124;6.226;2023-04-21T12:56:25;22.10;;;16.90;;
76023;SDS011;64719;52.124;6.226;2023-04-21T12:58:52;27.85;;;17.75;;
76023;SDS011;64719;52.124;6.226;2023-04-21T13:01:19;25.33;;;16.63;;
76023;SDS011;64719;52.124;6.226;2023-04-21T13:03:46;25.33;;;16.38;;
76023;SDS011;64719;52.124;6.226;2023-04-21T13:06:13;22.40;;;16.08;;
76023;SDS011;64719;52.124;6.226;2023-04-21T13:08:39;27.80;;;16.65;;
76023;SDS011;64719;52.124;6.226;2023-04-21T13:11:06;19.85;;;15.20;;
76023;SDS011;64719;52.124;6.226;2023-04-21T13:13:34;25.02;;;16.27;;
76023;SDS011;64719;52.124;6.226;2023-04-21T13:16:00;20.73;;;16.58;;
76023;SDS011;64719;52.124;6.226;2023-04-21T13:18:27;20.42;;;16.90;;
76023;SDS011;64719;52.124;6.226;2023-04-21T13:20:53;20.75;;;15.98;;
76023;SDS011;64719;52.124;6.226;2023-04-21T13:23:20;20.55;;;17.30;;
76023;SDS011;64719;52.124;6.226;2023-04-21T13:25:46;20.98;;;16.50;;
76023;SDS011;64719;52.124;6.226;2023-04-21T13:28:14;21.65;;;16.80;;
76023;SDS011;64719;52.124;6.226;2023-04-21T13:30:42;20.83;;;17.05;;
76023;SDS011;64719;52.124;6.226;2023-04-21T13:33:09;18.92;;;14.85;;
76023;SDS011;64719;52.124;6.226;2023-04-21T13:35:36;20.38;;;16.40;;
76023;SDS011;64719;52.124;6.226;2023-04-21T13:38:03;20.13;;;16.17;;
76023;SDS011;64719;52.124;6.226;2023-04-21T13:40:30;22.98;;;16.60;;
76023;SDS011;64719;52.124;6.226;2023-04-21T13:42:56;24.38;;;17.27;;
76023;SDS011;64719;52.124;6.226;2023-04-21T13:45:23;23.40;;;16.73;;
76023;SDS011;64719;52.124;6.226;2023-04-21T13:47:51;23.75;;;16.58;;
76023;SDS011;64719;52.124;6.226;2023-04-21T13:52:45;21.58;;;15.82;;
76023;SDS011;64719;52.124;6.226;2023-04-21T13:55:11;23.05;;;16.98;;
76023;SDS011;64719;52.124;6.226;2023-04-21T13:57:38;22.15;;;16.15;;
76023;SDS011;64719;52.124;6.226;2023-04-21T14:00:05;22.45;;;16.20;;
76023;SDS011;64719;52.124;6.226;2023-04-21T14:02:33;21.77;;;16.55;;
76023;SDS011;64719;52.124;6.226;2023-04-21T14:05:01;23.33;;;16.92;;
76023;SDS011;64719;52.124;6.226;2023-04-21T14:07:28;21.95;;;16.40;;
76023;SDS011;64719;52.124;6.226;2023-04-21T14:09:55;20.15;;;16.00;;
76023;SDS011;64719;52.124;6.226;2023-04-21T14:12:22;25.90;;;16.63;;
76023;SDS011;64719;52.124;6.226;2023-04-21T14:14:50;27.05;;;17.10;;
76023;SDS011;64719;52.124;6.226;2023-04-21T14:17:16;22.27;;;16.85;;
76023;SDS011;64719;52.124;6.226;2023-04-21T14:19:43;22.98;;;16.58;;
76023;SDS011;64719;52.124;6.226;2023-04-21T14:22:11;23.13;;;16.65;;
76023;SDS011;64719;52.124;6.226;2023-04-21T14:24:37;26.15;;;16.77;;
76023;SDS011;64719;52.124;6.226;2023-04-21T14:27:04;23.42;;;16.90;;
76023;SDS011;64719;52.124;6.226;2023-04-21T14:29:30;25.85;;;16.70;;
76023;SDS011;64719;52.124;6.226;2023-04-21T14:31:57;21.45;;;15.77;;
76023;SDS011;64719;52.124;6.226;2023-04-21T14:34:24;22.95;;;15.20;;
76023;SDS011;64719;52.124;6.226;2023-04-21T14:36:50;22.55;;;16.60;;
76023;SDS011;64719;52.124;6.226;2023-04-21T14:39:19;22.52;;;15.52;;
76023;SDS011;64719;52.124;6.226;2023-04-21T14:41:45;22.52;;;16.08;;
76023;SDS011;64719;52.124;6.226;2023-04-21T14:44:12;21.27;;;15.75;;